OE7AOT Weather Reports


Display with metric or nautical units.
time (UTC)temp
F
wind
direction
speed
MPH
gust
MPH
rain 1hr
in
rain 24hr
in
rain mn
in
humidity
%
barometer
mb
20221206013845 32 0 0.0 0.0 0.00 5.56 0.00 94 1020.5
20221206010845 32 0 0.0 0.0 0.00 5.56 0.00 94 1020.6
20221206003845 32 0 0.0 0.0 0.00 5.56 0.00 94 1020.7
20221206000845 33 0 0.0 0.0 0.00 5.56 0.00 95 1021.0
20221205233845 32 0 0.0 0.0 0.00 5.56 0.00 95 1021.0
20221205230845 32 0 0.0 0.0 0.00 5.56 0.00 95 1021.0
20221205223845 32 0 0.0 0.0 0.00 5.56 0.00 95 1021.2
20221205220845 32 0 0.0 0.0 0.00 5.56 0.00 95 1021.2
20221205213845 32 0 0.0 0.0 0.00 5.56 0.00 95 1021.2
20221205210845 32 0 0.0 0.0 0.00 5.56 0.00 95 1021.1
20221205203845 32 0 0.0 0.0 0.00 5.56 0.00 95 1021.0
20221205200845 32 0 0.0 0.0 0.00 5.56 0.00 95 1020.6
20221205193845 32 0 0.0 0.0 0.00 5.56 0.00 94 1020.5
20221205190845 33 0 0.0 0.0 0.00 5.56 0.00 94 1020.4
20221205183845 33 0 0.0 0.0 0.00 5.56 0.00 94 1020.4
20221205180845 33 314 5.0 0.0 0.00 5.56 0.00 94 1020.4
20221205173845 33 286 4.0 0.0 0.00 5.56 0.00 93 1020.0
20221205170845 34 273 6.0 0.0 0.00 5.56 0.00 93 1019.7
20221205163845 34 272 3.0 0.0 0.00 5.56 0.00 92 1019.8
20221205160845 34 348 3.0 0.0 0.00 5.56 0.00 91 1019.6
20221205153845 35 337 2.0 0.0 0.00 5.56 0.00 90 1019.4
20221205150845 36 340 3.0 0.0 0.00 5.56 0.00 88 1019.2
20221205143845 37 0 0.0 0.0 0.00 5.56 0.00 87 1019.2
20221205140845 37 0 0.0 0.0 0.00 5.56 0.00 86 1019.1
20221205133845 38 268 4.0 0.0 0.00 5.56 0.00 86 1018.9
20221205130845 38 278 7.0 0.0 0.00 5.56 0.00 86 1019.3
20221205123845 38 343 5.0 0.0 0.00 5.56 0.00 86 1019.2
20221205120845 38 316 4.0 0.0 0.00 5.56 0.00 85 1019.1
20221205113845 39 292 3.0 0.0 0.00 5.56 0.00 84 1019.1
20221205110845 40 295 4.0 0.0 0.00 5.56 0.00 82 1019.4
20221205103845 37 310 3.0 0.0 0.00 5.56 0.00 86 1019.5
20221205100845 37 317 5.0 0.0 0.00 5.56 0.00 86 1019.6
20221205093845 36 319 5.0 0.0 0.00 5.56 0.00 88 1019.4
20221205090845 35 303 2.0 0.0 0.00 5.56 0.00 90 1019.4
20221205083845 35 312 4.0 0.0 0.00 5.56 0.00 90 1019.1
20221205080845 35 0 0.0 0.0 0.00 5.56 0.00 90 1018.7
20221205073845 35 288 2.0 0.0 0.00 5.56 0.00 90 1018.5
20221205070845 34 309 3.0 0.0 0.00 5.56 0.00 90 1018.5
20221205063845 35 334 5.0 0.0 0.00 5.56 0.00 89 1018.2
20221205060845 36 0 0.0 0.0 0.00 5.56 0.00 89 1017.6
20221205053845 36 93 7.0 0.0 0.00 5.56 0.00 88 1017.0
20221205050845 35 121 9.0 0.0 0.00 5.56 0.00 89 1016.7
20221205043845 35 100 4.0 0.0 0.00 5.56 0.00 90 1016.7
20221205040845 36 111 7.0 0.0 0.00 5.56 0.00 89 1016.7
20221205033845 36 77 12.0 0.0 0.00 5.56 0.00 88 1016.5
20221205030845 36 110 10.0 0.0 0.00 5.56 0.00 86 1016.4
20221205023845 36 97 4.0 0.0 0.00 5.56 0.00 89 1016.5
20221205020845 35 127 8.0 0.0 0.00 5.56 0.00 91 1016.5